Time;durP1;ratioP1;P1;durP2;ratioP2;P2;SDS_P1;SDS_P2;PMS_P1;PMS_P2;Temp;Humidity;BMP_temperature;BMP_pressure;BME280_temperature;BME280_humidity;BME280_pressure;Samples;Min_cycle;Max_cycle;Signal;HPM_P1;HPM_P2
2023/03/08 00:01:52;;;;;;;0.15;0.15;;;;;;;;;;6195193;23;20017;-78
2023/03/08 00:04:38;;;;;;;0.20;0.20;;;;;;;;;;6197475;23;20508;-79
2023/03/08 00:07:24;;;;;;;0.20;0.20;;;;;;;;;;6195337;23;20529;-77
2023/03/08 00:10:10;;;;;;;0.20;0.20;;;;;;;;;;6174919;23;20032;-79
2023/03/08 00:12:55;;;;;;;0.10;0.10;;;;;;;;;;6197443;23;20474;-78
2023/03/08 00:15:41;;;;;;;0.20;0.20;;;;;;;;;;6195513;23;20185;-79
2023/03/08 00:18:29;;;;;;;0.10;0.10;;;;;;;;;;6196911;23;20020;-78
2023/03/08 00:21:16;;;;;;;0.20;0.20;;;;;;;;;;6197661;23;20397;-79
2023/03/08 00:24:01;;;;;;;0.20;0.20;;;;;;;;;;6196179;23;20143;-79
2023/03/08 00:26:47;;;;;;;0.20;0.20;;;;;;;;;;6174271;23;20112;-79
2023/03/08 00:29:36;;;;;;;0.20;0.20;;;;;;;;;;6173823;23;20013;-77
2023/03/08 00:32:23;;;;;;;0.13;0.13;;;;;;;;;;6197168;23;20020;-78
2023/03/08 00:35:09;;;;;;;0.20;0.20;;;;;;;;;;6175870;23;20313;-78
2023/03/08 00:37:57;;;;;;;0.20;0.20;;;;;;;;;;6196220;23;20016;-80
2023/03/08 00:40:43;;;;;;;0.10;0.10;;;;;;;;;;6195839;23;20344;-79
2023/03/08 00:43:29;;;;;;;0.20;0.20;;;;;;;;;;6195732;23;20753;-79
2023/03/08 00:46:15;;;;;;;0.10;0.10;;;;;;;;;;6196706;23;20079;-76
2023/03/08 00:49:00;;;;;;;0.20;0.20;;;;;;;;;;6196633;23;20330;-77
2023/03/08 00:51:46;;;;;;;0.20;0.20;;;;;;;;;;6175620;23;20034;-77
2023/03/08 00:54:32;;;;;;;0.20;0.20;;;;;;;;;;6194836;23;20040;-75
2023/03/08 00:57:18;;;;;;;0.17;0.17;;;;;;;;;;6200106;23;20326;-77
2023/03/08 01:00:10;;;;;;;0.10;0.10;;;;;;;;;;6199606;23;20017;-79
2023/03/08 01:02:56;;;;;;;0.10;0.10;;;;;;;;;;6196891;23;20008;-77
2023/03/08 01:05:43;;;;;;;0.10;0.10;;;;;;;;;;6196740;23;20164;-79
2023/03/08 01:08:28;;;;;;;0.20;0.20;;;;;;;;;;6193291;23;20028;-78
2023/03/08 01:11:22;;;;;;;0.15;0.15;;;;;;;;;;6195489;23;20039;-76
2023/03/08 01:14:08;;;;;;;0.20;0.20;;;;;;;;;;6198044;23;20012;-78
2023/03/08 01:16:54;;;;;;;0.10;0.10;;;;;;;;;;6199474;23;20075;-76
2023/03/08 01:19:42;;;;;;;0.10;0.10;;;;;;;;;;6201731;23;20017;-77
2023/03/08 01:22:27;;;;;;;0.10;0.10;;;;;;;;;;6177435;23;20024;-77
2023/03/08 01:25:13;;;;;;;0.20;0.20;;;;;;;;;;6200463;23;20644;-74
2023/03/08 01:28:00;;;;;;;0.20;0.20;;;;;;;;;;6202510;23;20381;-77
2023/03/08 01:30:46;;;;;;;0.20;0.20;;;;;;;;;;6177716;23;20024;-78
2023/03/08 01:33:32;;;;;;;0.10;0.10;;;;;;;;;;6201105;23;20013;-75
2023/03/08 01:36:21;;;;;;;0.17;0.17;;;;;;;;;;6202374;23;20105;-78
2023/03/08 01:39:07;;;;;;;0.20;0.20;;;;;;;;;;6202556;23;20442;-77
2023/03/08 01:41:53;;;;;;;0.10;0.10;;;;;;;;;;6201429;23;20028;-79
2023/03/08 01:44:53;;;;;;;0.15;0.15;;;;;;;;;;6199231;23;20009;-79
2023/03/08 01:47:40;;;;;;;0.10;0.10;;;;;;;;;;6199409;23;20028;-77
2023/03/08 01:50:35;;;;;;;0.20;0.20;;;;;;;;;;6198571;23;20342;-77
2023/03/08 01:53:21;;;;;;;0.15;0.15;;;;;;;;;;6199093;23;20025;-77
2023/03/08 01:56:08;;;;;;;0.10;0.10;;;;;;;;;;6196634;23;20023;-75
2023/03/08 01:58:54;;;;;;;0.20;0.20;;;;;;;;;;6193813;23;20023;-76
2023/03/08 02:01:42;;;;;;;0.10;0.10;;;;;;;;;;6195479;23;20559;-77
2023/03/08 02:04:28;;;;;;;0.10;0.10;;;;;;;;;;6196415;23;20016;-79
2023/03/08 02:07:15;;;;;;;0.20;0.20;;;;;;;;;;6193138;23;20032;-77
2023/03/08 02:10:02;;;;;;;0.10;0.10;;;;;;;;;;6196222;23;20020;-79
2023/03/08 02:12:47;;;;;;;0.20;0.20;;;;;;;;;;6196707;23;20012;-79
2023/03/08 02:15:35;;;;;;;0.20;0.20;;;;;;;;;;6197401;23;20016;-78
2023/03/08 02:18:22;;;;;;;0.10;0.10;;;;;;;;;;6198778;23;20017;-78
2023/03/08 02:21:08;;;;;;;0.10;0.10;;;;;;;;;;6196425;23;20059;-79
2023/03/08 02:23:54;;;;;;;0.20;0.20;;;;;;;;;;6198387;23;20067;-79
2023/03/08 02:26:40;;;;;;;0.20;0.20;;;;;;;;;;6199739;23;20424;-77
2023/03/08 02:29:26;;;;;;;0.20;0.20;;;;;;;;;;6198658;23;20019;-77
2023/03/08 02:32:14;;;;;;;0.20;0.20;;;;;;;;;;6198281;23;20017;-78
2023/03/08 02:35:00;;;;;;;0.20;0.20;;;;;;;;;;6198808;23;20040;-79
2023/03/08 02:37:46;;;;;;;0.10;0.10;;;;;;;;;;6197260;23;20421;-78
2023/03/08 02:40:32;;;;;;;0.15;0.15;;;;;;;;;;6198866;23;20450;-77
2023/03/08 02:43:18;;;;;;;0.20;0.20;;;;;;;;;;6196775;23;20009;-76
2023/03/08 02:46:04;;;;;;;0.20;0.20;;;;;;;;;;6198724;23;20026;-78
2023/03/08 02:48:51;;;;;;;0.20;0.20;;;;;;;;;;6195257;23;20067;-82
2023/03/08 02:51:39;;;;;;;0.20;0.20;;;;;;;;;;6195850;23;20047;-77
2023/03/08 02:54:25;;;;;;;0.20;0.20;;;;;;;;;;6197983;23;20012;-76
2023/03/08 02:57:10;;;;;;;0.20;0.20;;;;;;;;;;6197670;23;20013;-77
2023/03/08 02:59:57;;;;;;;0.10;0.10;;;;;;;;;;6196918;23;20013;-80
2023/03/08 03:02:45;;;;;;;0.15;0.15;;;;;;;;;;6195203;23;20012;-78
2023/03/08 03:05:31;;;;;;;0.20;0.20;;;;;;;;;;6196117;23;20525;-79
2023/03/08 03:08:21;;;;;;;0.20;0.20;;;;;;;;;;6196212;23;20020;-80
2023/03/08 03:11:11;;;;;;;0.10;0.10;;;;;;;;;;6198275;23;20334;-76
2023/03/08 03:13:57;;;;;;;0.20;0.20;;;;;;;;;;6197482;23;20012;-80
2023/03/08 03:16:47;;;;;;;0.20;0.20;;;;;;;;;;6196084;23;20058;-80
2023/03/08 03:19:33;;;;;;;0.10;0.10;;;;;;;;;;6199599;23;20488;-77
2023/03/08 03:22:19;;;;;;;0.20;0.20;;;;;;;;;;6197436;23;20469;-80
2023/03/08 03:25:05;;;;;;;0.20;0.20;;;;;;;;;;6196278;23;20016;-79
2023/03/08 03:27:53;;;;;;;0.10;0.10;;;;;;;;;;6195408;23;20040;-78
2023/03/08 03:30:38;;;;;;;0.20;0.20;;;;;;;;;;6197030;23;20005;-77
2023/03/08 03:33:26;;;;;;;0.20;0.20;;;;;;;;;;6195733;23;20021;-78
2023/03/08 03:36:14;;;;;;;0.10;0.10;;;;;;;;;;6197190;23;20379;-78
2023/03/08 03:39:00;;;;;;;0.20;0.20;;;;;;;;;;6197724;23;20146;-78
2023/03/08 03:41:46;;;;;;;0.10;0.10;;;;;;;;;;6194182;23;20423;-77
2023/03/08 03:44:33;;;;;;;0.20;0.20;;;;;;;;;;6195389;23;20036;-76
2023/03/08 03:47:20;;;;;;;0.10;0.10;;;;;;;;;;6196500;23;20027;-78
2023/03/08 03:50:09;;;;;;;0.10;0.10;;;;;;;;;;6196477;23;20439;-77
2023/03/08 03:53:04;;;;;;;0.17;0.17;;;;;;;;;;6194452;23;20021;-79
2023/03/08 03:55:50;;;;;;;0.17;0.17;;;;;;;;;;6198976;23;20020;-78
2023/03/08 03:58:36;;;;;;;0.20;0.20;;;;;;;;;;6198887;23;20023;-80
2023/03/08 04:01:29;;;;;;;0.20;0.20;;;;;;;;;;6186033;23;20017;-78
2023/03/08 04:04:33;;;;;;;0.20;0.20;;;;;;;;;;6153491;23;20322;-78
2023/03/08 04:07:19;;;;;;;0.20;0.20;;;;;;;;;;6169250;23;20414;-79
2023/03/08 04:10:13;;;;;;;0.20;0.20;;;;;;;;;;6166395;23;20019;-80
2023/03/08 04:13:00;;;;;;;0.10;0.10;;;;;;;;;;6167750;23;20117;-76
2023/03/08 04:15:46;;;;;;;0.20;0.20;;;;;;;;;;6172960;23;20268;-76
2023/03/08 04:18:32;;;;;;;0.20;0.20;;;;;;;;;;6170259;23;20342;-79
2023/03/08 04:21:18;;;;;;;0.10;0.10;;;;;;;;;;6170437;23;20009;-80
2023/03/08 04:24:06;;;;;;;0.20;0.20;;;;;;;;;;6165591;23;20358;-78
2023/03/08 04:26:52;;;;;;;0.20;0.20;;;;;;;;;;6165319;23;20351;-79
2023/03/08 04:29:39;;;;;;;0.17;0.17;;;;;;;;;;6168294;23;20062;-79
2023/03/08 04:32:27;;;;;;;0.10;0.10;;;;;;;;;;6192691;23;20016;-75
2023/03/08 04:35:16;;;;;;;0.20;0.20;;;;;;;;;;6174462;23;20326;-79
2023/03/08 04:38:04;;;;;;;0.10;0.10;;;;;;;;;;6196062;23;20091;-81
2023/03/08 04:44:23;;;;;;;0.10;0.10;;;;;;;;;;6196167;23;20091;-78
2023/03/08 04:47:11;;;;;;;0.20;0.20;;;;;;;;;;6196364;23;20039;-79
2023/03/08 04:50:04;;;;;;;0.20;0.20;;;;;;;;;;6195238;23;20103;-76
2023/03/08 04:52:51;;;;;;;0.20;0.20;;;;;;;;;;6196228;23;20016;-78
2023/03/08 04:55:37;;;;;;;0.20;0.20;;;;;;;;;;6195379;23;20036;-77
2023/03/08 04:58:23;;;;;;;0.10;0.10;;;;;;;;;;6195894;23;20016;-80
2023/03/08 05:01:13;;;;;;;0.10;0.10;;;;;;;;;;6195401;23;20020;-80
2023/03/08 05:04:00;;;;;;;;;;;;;;;;;;6198087;23;20457;-80
2023/03/08 05:06:53;;;;;;;0.10;0.10;;;;;;;;;;6198370;23;19922;-79
2023/03/08 05:09:43;;;;;;;0.20;0.20;;;;;;;;;;6195993;23;20071;-80
2023/03/08 05:12:29;;;;;;;0.20;0.20;;;;;;;;;;6176651;23;20147;-81
2023/03/08 05:15:18;;;;;;;0.17;0.17;;;;;;;;;;6197743;23;20013;-79
2023/03/08 05:18:04;;;;;;;0.10;0.10;;;;;;;;;;6199015;23;20012;-78
2023/03/08 05:20:57;;;;;;;0.20;0.20;;;;;;;;;;6200485;23;20434;-79
2023/03/08 05:23:44;;;;;;;0.10;0.10;;;;;;;;;;6178404;23;20087;-81
2023/03/08 05:26:32;;;;;;;0.17;0.17;;;;;;;;;;6198186;23;20464;-77
2023/03/08 05:29:18;;;;;;;0.10;0.10;;;;;;;;;;6178136;23;20013;-79
2023/03/08 05:32:04;;;;;;;0.20;0.20;;;;;;;;;;6196748;23;20071;-81
2023/03/08 05:34:52;;;;;;;0.10;0.10;;;;;;;;;;6196686;23;20024;-81
2023/03/08 05:37:45;;;;;;;0.20;0.20;;;;;;;;;;6198480;23;20012;-78
2023/03/08 05:40:31;;;;;;;0.10;0.10;;;;;;;;;;6199300;23;20016;-81
2023/03/08 05:43:18;;;;;;;0.20;0.20;;;;;;;;;;6198224;23;20399;-79
2023/03/08 05:46:10;;;;;;;0.10;0.10;;;;;;;;;;6200292;23;20072;-77
2023/03/08 05:48:57;;;;;;;0.10;0.10;;;;;;;;;;6199726;23;20016;-81
2023/03/08 05:51:43;;;;;;;0.20;0.20;;;;;;;;;;6198324;23;20020;-79
2023/03/08 05:54:30;;;;;;;0.20;0.20;;;;;;;;;;6198283;23;20426;-80
2023/03/08 05:57:22;;;;;;;0.20;0.20;;;;;;;;;;6179326;23;20017;-80
2023/03/08 06:00:09;;;;;;;0.20;0.20;;;;;;;;;;6200463;23;20008;-81
2023/03/08 06:03:04;;;;;;;0.20;0.20;;;;;;;;;;6200070;23;20009;-81
2023/03/08 06:05:53;;;;;;;0.10;0.10;;;;;;;;;;6202625;23;20213;-78
2023/03/08 06:08:39;;;;;;;0.10;0.10;;;;;;;;;;6199060;23;20020;-76
2023/03/08 06:11:26;;;;;;;0.13;0.13;;;;;;;;;;6198668;23;20008;-77
2023/03/08 06:14:14;;;;;;;0.20;0.20;;;;;;;;;;6178454;23;20035;-78
2023/03/08 06:17:00;;;;;;;0.20;0.20;;;;;;;;;;6201397;23;20047;-77
2023/03/08 06:19:49;;;;;;;0.20;0.20;;;;;;;;;;6200189;23;20540;-78
2023/03/08 06:22:36;;;;;;;0.10;0.10;;;;;;;;;;6202186;23;20454;-78
2023/03/08 06:25:22;;;;;;;0.10;0.10;;;;;;;;;;6179106;23;20063;-77
2023/03/08 06:28:09;;;;;;;0.10;0.10;;;;;;;;;;6199292;23;20027;-78
2023/03/08 06:30:59;;;;;;;0.10;0.10;;;;;;;;;;6198585;23;20116;-78
2023/03/08 06:33:45;;;;;;;0.20;0.20;;;;;;;;;;6200024;23;20091;-75
2023/03/08 06:36:35;;;;;;;0.20;0.20;;;;;;;;;;6202529;23;20450;-78
2023/03/08 06:39:20;;;;;;;0.20;0.20;;;;;;;;;;6201639;23;20450;-78
2023/03/08 06:42:09;;;;;;;0.20;0.20;;;;;;;;;;6199911;23;20005;-77
2023/03/08 06:44:55;;;;;;;0.20;0.20;;;;;;;;;;6199773;23;20365;-78
2023/03/08 06:47:40;;;;;;;0.20;0.20;;;;;;;;;;6200155;23;20029;-78
2023/03/08 06:50:27;;;;;;;0.20;0.20;;;;;;;;;;6198107;23;20398;-76
2023/03/08 06:53:17;;;;;;;0.20;0.20;;;;;;;;;;6197778;23;20048;-78
2023/03/08 06:56:16;;;;;;;0.10;0.10;;;;;;;;;;6201703;23;20016;-78
2023/03/08 06:59:06;;;;;;;0.20;0.20;;;;;;;;;;6200817;23;20040;-77
2023/03/08 07:01:52;;;;;;;0.20;0.20;;;;;;;;;;6196842;23;20017;-77
2023/03/08 07:04:38;;;;;;;0.20;0.20;;;;;;;;;;6200932;23;20023;-77
2023/03/08 07:07:23;;;;;;;0.20;0.20;;;;;;;;;;6199231;23;20619;-77
2023/03/08 07:10:10;;;;;;;0.10;0.10;;;;;;;;;;6198003;23;20505;-77
2023/03/08 07:12:58;;;;;;;0.20;0.20;;;;;;;;;;6198918;23;20012;-75
2023/03/08 07:15:43;;;;;;;0.10;0.10;;;;;;;;;;6198885;23;20016;-77
2023/03/08 07:18:30;;;;;;;0.13;0.13;;;;;;;;;;6198649;23;20012;-77
2023/03/08 07:21:16;;;;;;;0.10;0.10;;;;;;;;;;6197978;23;20482;-77
2023/03/08 07:24:02;;;;;;;0.20;0.20;;;;;;;;;;6198689;23;20013;-77
2023/03/08 07:26:48;;;;;;;0.20;0.20;;;;;;;;;;6197016;23;20509;-77
2023/03/08 07:29:34;;;;;;;0.10;0.10;;;;;;;;;;6197567;23;20023;-78
2023/03/08 07:32:22;;;;;;;0.20;0.20;;;;;;;;;;6167481;23;20124;-77
2023/03/08 07:35:08;;;;;;;0.20;0.20;;;;;;;;;;6170219;23;20112;-76
2023/03/08 07:37:54;;;;;;;0.20;0.20;;;;;;;;;;6168335;23;20485;-77
2023/03/08 07:40:40;;;;;;;0.20;0.20;;;;;;;;;;6168637;23;20331;-77
2023/03/08 07:43:26;;;;;;;0.20;0.20;;;;;;;;;;6170269;23;20017;-78
2023/03/08 07:46:15;;;;;;;0.20;0.20;;;;;;;;;;6169880;23;20009;-77
2023/03/08 07:49:01;;;;;;;0.20;0.20;;;;;;;;;;6170287;23;20013;-77
2023/03/08 07:51:53;;;;;;;0.20;0.20;;;;;;;;;;6168688;23;20020;-77
2023/03/08 07:54:39;;;;;;;0.10;0.10;;;;;;;;;;6168190;23;20021;-77
2023/03/08 07:57:24;;;;;;;0.20;0.20;;;;;;;;;;6168316;23;20103;-76
2023/03/08 08:00:10;;;;;;;0.20;0.20;;;;;;;;;;6167041;23;20044;-77
2023/03/08 08:02:59;;;;;;;0.20;0.20;;;;;;;;;;6168420;23;20366;-77
2023/03/08 08:05:45;;;;;;;0.20;0.20;;;;;;;;;;6168250;23;20013;-77
2023/03/08 08:08:30;;;;;;;0.10;0.10;;;;;;;;;;6167945;23;20031;-76
2023/03/08 08:11:18;;;;;;;0.10;0.10;;;;;;;;;;6167214;23;20016;-77
2023/03/08 08:14:04;;;;;;;0.20;0.20;;;;;;;;;;6168646;23;20017;-76
2023/03/08 08:16:50;;;;;;;0.10;0.10;;;;;;;;;;6167145;23;20021;-77
2023/03/08 08:19:36;;;;;;;0.10;0.10;;;;;;;;;;6167427;23;20013;-77
2023/03/08 08:22:22;;;;;;;0.10;0.10;;;;;;;;;;6167726;23;20023;-77
2023/03/08 08:25:08;;;;;;;0.20;0.20;;;;;;;;;;6167975;23;20017;-77
2023/03/08 08:27:53;;;;;;;0.10;0.10;;;;;;;;;;6167576;23;20025;-77
2023/03/08 08:30:39;;;;;;;0.10;0.10;;;;;;;;;;6174025;23;20013;-76
2023/03/08 08:33:26;;;;;;;0.20;0.20;;;;;;;;;;6196476;23;20075;-75
2023/03/08 08:36:13;;;;;;;0.20;0.20;;;;;;;;;;6197991;23;20071;-77
2023/03/08 08:38:59;;;;;;;0.20;0.20;;;;;;;;;;6195327;23;20358;-77
2023/03/08 08:41:47;;;;;;;0.20;0.20;;;;;;;;;;6198444;23;20456;-76
2023/03/08 08:44:35;;;;;;;0.20;0.20;;;;;;;;;;6198655;23;20082;-75
2023/03/08 08:47:21;;;;;;;0.20;0.20;;;;;;;;;;6196727;23;20056;-77
2023/03/08 08:50:07;;;;;;;0.20;0.20;;;;;;;;;;6197253;23;20017;-76
2023/03/08 08:52:53;;;;;;;0.20;0.20;;;;;;;;;;6197126;23;20079;-76
2023/03/08 08:55:38;;;;;;;0.10;0.10;;;;;;;;;;6197520;23;20013;-76
2023/03/08 08:58:24;;;;;;;0.15;0.15;;;;;;;;;;6197528;23;20016;-76
2023/03/08 09:01:21;;;;;;;0.10;0.10;;;;;;;;;;6199030;23;20013;-76
2023/03/08 09:04:07;;;;;;;0.20;0.20;;;;;;;;;;6197676;23;20019;-75
2023/03/08 09:06:53;;;;;;;0.20;0.20;;;;;;;;;;6197281;23;20407;-75
2023/03/08 09:09:38;;;;;;;0.20;0.20;;;;;;;;;;6197895;23;20009;-74
2023/03/08 09:12:24;;;;;;;0.20;0.20;;;;;;;;;;6173405;23;20016;-75
2023/03/08 09:15:10;;;;;;;0.20;0.20;;;;;;;;;;6197682;23;20013;-74
2023/03/08 09:17:56;;;;;;;0.20;0.20;;;;;;;;;;6174990;23;20017;-74
2023/03/08 09:20:42;;;;;;;0.20;0.20;;;;;;;;;;6196978;23;20021;-74
2023/03/08 09:23:27;;;;;;;0.20;0.20;;;;;;;;;;6195747;23;20012;-74
2023/03/08 09:26:13;;;;;;;0.20;0.20;;;;;;;;;;6196322;23;20095;-74
2023/03/08 09:29:03;;;;;;;0.20;0.20;;;;;;;;;;6196253;23;20216;-74
2023/03/08 09:31:49;;;;;;;0.20;0.20;;;;;;;;;;6194613;23;20016;-74
2023/03/08 09:34:34;;;;;;;0.20;0.20;;;;;;;;;;6195968;23;20023;-75
2023/03/08 09:37:20;;;;;;;0.20;0.20;;;;;;;;;;6196731;23;20095;-75
2023/03/08 09:40:08;;;;;;;0.20;0.20;;;;;;;;;;6197731;23;20092;-74
2023/03/08 09:43:00;;;;;;;0.20;0.20;;;;;;;;;;6197893;23;20020;-74
2023/03/08 09:45:50;;;;;;;0.20;0.20;;;;;;;;;;6198934;23;20016;-74
2023/03/08 09:48:35;;;;;;;0.20;0.20;;;;;;;;;;6197538;23;20020;-74
2023/03/08 09:51:22;;;;;;;0.20;0.20;;;;;;;;;;6195235;23;20020;-74
2023/03/08 09:54:11;;;;;;;0.20;0.20;;;;;;;;;;6197698;23;20016;-74
2023/03/08 09:56:57;;;;;;;0.20;0.20;;;;;;;;;;6196468;23;20027;-74
2023/03/08 09:59:50;;;;;;;0.20;0.20;;;;;;;;;;6197534;23;20020;-74
2023/03/08 10:02:40;;;;;;;0.20;0.20;;;;;;;;;;6196958;23;20012;-75
2023/03/08 10:05:44;;;;;;;0.20;0.20;;;;;;;;;;6198854;23;20016;-74
2023/03/08 10:08:46;;;;;;;0.20;0.20;;;;;;;;;;6195940;23;20020;-74
2023/03/08 10:11:32;;;;;;;;;;;;;;;;;;6198921;23;20029;-74
2023/03/08 10:14:19;;;;;;;0.20;0.20;;;;;;;;;;6177064;23;20277;-74
2023/03/08 10:17:10;;;;;;;0.20;0.20;;;;;;;;;;6197487;23;20020;-75
2023/03/08 10:20:05;;;;;;;0.30;0.30;;;;;;;;;;6176480;23;20035;-73
2023/03/08 10:23:12;;;;;;;0.20;0.20;;;;;;;;;;6197006;23;20106;-72
2023/03/08 10:26:01;;;;;;;0.20;0.20;;;;;;;;;;6197914;23;20008;-72
2023/03/08 10:28:47;;;;;;;0.20;0.20;;;;;;;;;;6197171;23;20031;-72
2023/03/08 10:31:32;;;;;;;0.20;0.20;;;;;;;;;;6195842;23;20091;-72
2023/03/08 10:34:20;;;;;;;0.20;0.20;;;;;;;;;;6199011;23;20020;-72
2023/03/08 10:37:06;;;;;;;0.20;0.20;;;;;;;;;;6197973;23;20413;-73
2023/03/08 10:39:53;;;;;;;0.20;0.20;;;;;;;;;;6176513;23;20012;-72
2023/03/08 10:42:42;;;;;;;0.20;0.20;;;;;;;;;;6197360;23;20017;-72
2023/03/08 10:45:28;;;;;;;0.20;0.20;;;;;;;;;;6174406;23;20013;-72
2023/03/08 10:48:19;;;;;;;0.20;0.20;;;;;;;;;;6197688;23;20470;-73
2023/03/08 10:51:14;;;;;;;0.20;0.20;;;;;;;;;;6198079;23;20016;-73
2023/03/08 10:54:03;;;;;;;0.20;0.20;;;;;;;;;;6198143;23;20008;-73
2023/03/08 10:56:52;;;;;;;0.20;0.20;;;;;;;;;;6198475;23;20016;-72
2023/03/08 10:59:38;;;;;;;0.20;0.20;;;;;;;;;;6198440;23;20016;-72
2023/03/08 11:02:24;;;;;;;0.20;0.20;;;;;;;;;;6176181;23;20327;-73
2023/03/08 11:05:22;;;;;;;0.20;0.20;;;;;;;;;;6199798;23;20016;-73
2023/03/08 11:08:14;;;;;;;0.20;0.20;;;;;;;;;;6198601;23;20048;-73
2023/03/08 11:11:11;;;;;;;0.20;0.20;;;;;;;;;;6199517;23;20194;-73
2023/03/08 11:13:57;;;;;;;0.20;0.20;;;;;;;;;;6177057;23;20019;-72
2023/03/08 11:16:45;;;;;;;0.20;0.20;;;;;;;;;;6198463;23;20028;-73
2023/03/08 11:19:58;;;;;;;0.20;0.20;;;;;;;;;;6199010;23;20019;-73
2023/03/08 11:22:55;;;;;;;0.20;0.20;;;;;;;;;;6198606;23;20016;-73
2023/03/08 11:25:54;;;;;;;0.20;0.20;;;;;;;;;;6176599;23;20013;-73
2023/03/08 11:28:43;;;;;;;0.20;0.20;;;;;;;;;;6197239;23;20033;-73
2023/03/08 11:31:32;;;;;;;0.20;0.20;;;;;;;;;;6196830;23;20091;-73
2023/03/08 11:34:37;;;;;;;0.20;0.20;;;;;;;;;;6198026;23;20326;-72
2023/03/08 11:37:34;;;;;;;0.20;0.20;;;;;;;;;;6199850;23;20020;-73
2023/03/08 11:40:23;;;;;;;0.20;0.20;;;;;;;;;;6198589;23;20012;-73
2023/03/08 11:43:15;;;;;;;0.20;0.20;;;;;;;;;;6174246;23;20338;-73
2023/03/08 11:46:01;;;;;;;0.20;0.20;;;;;;;;;;6198392;23;20016;-73
2023/03/08 11:49:12;;;;;;;0.28;0.28;;;;;;;;;;6197986;23;20455;-73
2023/03/08 11:52:17;;;;;;;0.20;0.20;;;;;;;;;;6196889;23;20044;-73
2023/03/08 11:55:21;;;;;;;0.30;0.30;;;;;;;;;;6175103;23;20015;-73
2023/03/08 11:58:21;;;;;;;0.20;0.20;;;;;;;;;;6197889;23;20434;-73
2023/03/08 12:01:27;;;;;;;0.20;0.20;;;;;;;;;;6196571;23;20015;-73
2023/03/08 12:04:16;;;;;;;0.17;0.17;;;;;;;;;;6199159;23;20344;-72
2023/03/08 12:07:05;;;;;;;0.20;0.20;;;;;;;;;;6175754;23;20031;-73
2023/03/08 12:09:57;;;;;;;0.20;0.20;;;;;;;;;;6196246;23;20013;-73
2023/03/08 12:12:45;;;;;;;0.20;0.20;;;;;;;;;;6196975;23;20016;-72
2023/03/08 12:16:07;;;;;;;0.20;0.20;;;;;;;;;;6198607;23;20016;-72
2023/03/08 12:18:57;;;;;;;0.20;0.20;;;;;;;;;;6049468;23;20066;-73
2023/03/08 12:21:47;;;;;;;0.20;0.20;;;;;;;;;;6200879;23;20023;-73
2023/03/08 12:24:36;;;;;;;0.20;0.20;;;;;;;;;;6176754;23;20479;-72
2023/03/08 12:27:41;;;;;;;0.20;0.20;;;;;;;;;;6196390;23;20020;-72
2023/03/08 12:30:27;;;;;;;0.20;0.20;;;;;;;;;;6196805;23;20013;-73
2023/03/08 12:33:13;;;;;;;0.20;0.20;;;;;;;;;;6196365;23;20444;-73
2023/03/08 12:36:03;;;;;;;0.20;0.20;;;;;;;;;;6196493;23;20011;-73
2023/03/08 12:38:55;;;;;;;0.20;0.20;;;;;;;;;;6196578;23;20024;-73
2023/03/08 12:41:41;;;;;;;0.20;0.20;;;;;;;;;;6174464;23;20036;-73
2023/03/08 12:44:28;;;;;;;0.20;0.20;;;;;;;;;;6198848;23;20039;-73
2023/03/08 12:47:19;;;;;;;0.20;0.20;;;;;;;;;;6199715;23;20017;-72
2023/03/08 12:50:07;;;;;;;0.20;0.20;;;;;;;;;;6175036;23;20009;-73
2023/03/08 12:52:55;;;;;;;0.20;0.20;;;;;;;;;;6196427;23;20214;-73
2023/03/08 12:55:42;;;;;;;0.20;0.20;;;;;;;;;;6198250;23;20077;-72
2023/03/08 12:58:28;;;;;;;0.20;0.20;;;;;;;;;;6197434;23;20182;-72
2023/03/08 13:01:27;;;;;;;0.20;0.20;;;;;;;;;;6196559;23;20044;-72
2023/03/08 13:04:37;;;;;;;0.20;0.20;;;;;;;;;;6198103;23;20463;-73
2023/03/08 13:07:30;;;;;;;0.20;0.20;;;;;;;;;;6198152;23;20021;-73
2023/03/08 13:10:16;;;;;;;0.10;0.10;;;;;;;;;;6195808;23;20083;-73
2023/03/08 13:13:16;;;;;;;0.20;0.20;;;;;;;;;;6175378;23;20472;-73
2023/03/08 13:16:14;;;;;;;0.20;0.20;;;;;;;;;;6174398;23;20017;-73
2023/03/08 13:19:17;;;;;;;0.20;0.20;;;;;;;;;;6197557;23;20021;-73
2023/03/08 13:22:03;;;;;;;0.20;0.20;;;;;;;;;;6155418;23;20047;-73
2023/03/08 13:24:53;;;;;;;0.20;0.20;;;;;;;;;;6198326;23;20013;-73
2023/03/08 13:27:50;;;;;;;0.20;0.20;;;;;;;;;;6197383;23;20017;-74
2023/03/08 13:30:36;;;;;;;0.20;0.20;;;;;;;;;;6196331;23;20036;-74
2023/03/08 13:33:23;;;;;;;0.20;0.20;;;;;;;;;;6196284;23;20019;-74
2023/03/08 13:36:29;;;;;;;0.20;0.20;;;;;;;;;;6198315;23;20012;-74
2023/03/08 13:39:20;;;;;;;0.10;0.10;;;;;;;;;;6197685;23;20500;-74
2023/03/08 13:42:08;;;;;;;0.20;0.20;;;;;;;;;;6176247;23;20430;-74
2023/03/08 13:45:05;;;;;;;0.20;0.20;;;;;;;;;;6174958;23;20019;-74
2023/03/08 13:47:52;;;;;;;0.20;0.20;;;;;;;;;;6197666;23;20513;-74
2023/03/08 13:50:41;;;;;;;0.20;0.20;;;;;;;;;;6197875;23;20012;-74
2023/03/08 13:53:34;;;;;;;0.20;0.20;;;;;;;;;;6197484;23;20311;-74
2023/03/08 13:56:22;;;;;;;0.20;0.20;;;;;;;;;;6197463;23;20047;-74
2023/03/08 13:59:15;;;;;;;0.20;0.20;;;;;;;;;;6198024;23;20087;-74
2023/03/08 14:02:01;;;;;;;0.20;0.20;;;;;;;;;;6197534;23;20095;-73
2023/03/08 14:04:47;;;;;;;0.10;0.10;;;;;;;;;;6197918;23;20444;-73
2023/03/08 14:07:33;;;;;;;0.10;0.10;;;;;;;;;;6198929;23;20021;-74
2023/03/08 14:10:20;;;;;;;0.20;0.20;;;;;;;;;;6197885;23;20015;-74
2023/03/08 14:13:13;;;;;;;0.10;0.10;;;;;;;;;;6199580;23;20008;-74
2023/03/08 14:16:01;;;;;;;0.13;0.13;;;;;;;;;;6199152;23;20088;-74
2023/03/08 14:18:48;;;;;;;0.10;0.10;;;;;;;;;;6198894;23;20017;-75
2023/03/08 14:21:34;;;;;;;0.10;0.10;;;;;;;;;;6177530;23;20012;-75
2023/03/08 14:24:21;;;;;;;0.20;0.20;;;;;;;;;;6199760;23;20039;-75
2023/03/08 14:27:12;;;;;;;0.20;0.20;;;;;;;;;;6198549;23;20052;-76
2023/03/08 14:30:13;;;;;;;0.20;0.20;;;;;;;;;;6198012;23;20047;-76
2023/03/08 14:33:00;;;;;;;0.15;0.15;;;;;;;;;;6198225;23;20012;-75
2023/03/08 14:35:56;;;;;;;0.13;0.13;;;;;;;;;;6199623;23;20012;-75
2023/03/08 14:38:46;;;;;;;0.10;0.10;;;;;;;;;;6196713;23;20027;-74
2023/03/08 14:41:34;;;;;;;0.20;0.20;;;;;;;;;;6177870;23;20610;-75
2023/03/08 14:44:21;;;;;;;0.20;0.20;;;;;;;;;;6176747;23;20019;-75
2023/03/08 14:47:08;;;;;;;0.10;0.10;;;;;;;;;;6198520;23;20020;-76
2023/03/08 14:50:14;;;;;;;0.10;0.10;;;;;;;;;;6198468;23;20005;-75
2023/03/08 14:53:03;;;;;;;0.10;0.10;;;;;;;;;;6190534;23;20017;-75
2023/03/08 14:55:48;;;;;;;0.15;0.15;;;;;;;;;;6198339;23;20008;-75
2023/03/08 14:58:36;;;;;;;0.20;0.20;;;;;;;;;;6197542;23;20009;-74
2023/03/08 15:01:23;;;;;;;0.13;0.13;;;;;;;;;;6184399;23;20020;-76
2023/03/08 15:04:16;;;;;;;0.15;0.15;;;;;;;;;;6169976;23;20423;-75
2023/03/08 15:07:02;;;;;;;0.20;0.20;;;;;;;;;;6167434;23;20021;-75
2023/03/08 15:09:49;;;;;;;0.20;0.20;;;;;;;;;;6167431;23;20016;-75
2023/03/08 15:12:35;;;;;;;0.20;0.20;;;;;;;;;;6168065;23;20177;-75
2023/03/08 15:15:20;;;;;;;0.20;0.20;;;;;;;;;;6169677;23;20009;-75
2023/03/08 15:18:07;;;;;;;0.10;0.10;;;;;;;;;;6168832;23;20017;-75
2023/03/08 15:20:54;;;;;;;0.10;0.10;;;;;;;;;;6169792;23;20254;-75
2023/03/08 15:23:40;;;;;;;0.10;0.10;;;;;;;;;;6170382;23;20009;-75
2023/03/08 15:26:28;;;;;;;0.20;0.20;;;;;;;;;;6170018;23;20016;-77
2023/03/08 15:29:35;;;;;;;0.20;0.20;;;;;;;;;;6167323;23;20439;-76
2023/03/08 15:32:22;;;;;;;0.10;0.10;;;;;;;;;;6196511;23;20471;-76
2023/03/08 15:35:08;;;;;;;0.20;0.20;;;;;;;;;;6197824;23;20009;-76
2023/03/08 15:37:53;;;;;;;0.20;0.20;;;;;;;;;;6198552;23;20017;-76
2023/03/08 15:40:39;;;;;;;0.10;0.10;;;;;;;;;;6199577;23;20009;-76
2023/03/08 15:43:25;;;;;;;0.20;0.20;;;;;;;;;;6198073;23;20095;-76
2023/03/08 15:46:14;;;;;;;0.10;0.10;;;;;;;;;;6199477;23;20038;-76
2023/03/08 15:48:59;;;;;;;0.20;0.20;;;;;;;;;;6197655;23;20020;-74
2023/03/08 15:51:45;;;;;;;0.17;0.17;;;;;;;;;;6197907;23;20391;-74
2023/03/08 15:54:31;;;;;;;0.10;0.10;;;;;;;;;;6198903;23;20068;-74
2023/03/08 15:57:17;;;;;;;0.20;0.20;;;;;;;;;;6173959;23;20143;-74
2023/03/08 16:00:06;;;;;;;0.10;0.10;;;;;;;;;;6195074;23;20078;-75
2023/03/08 16:02:56;;;;;;;0.20;0.20;;;;;;;;;;6177208;23;20005;-74
2023/03/08 16:05:42;;;;;;;0.20;0.20;;;;;;;;;;6195671;23;20063;-74
2023/03/08 16:08:28;;;;;;;0.10;0.10;;;;;;;;;;6197285;23;20024;-75
2023/03/08 16:11:16;;;;;;;0.20;0.20;;;;;;;;;;6197770;23;20015;-74
2023/03/08 16:14:01;;;;;;;0.10;0.10;;;;;;;;;;6198621;23;20043;-76
2023/03/08 16:16:47;;;;;;;0.10;0.10;;;;;;;;;;6197856;23;20422;-76
2023/03/08 16:19:34;;;;;;;0.10;0.10;;;;;;;;;;6199093;23;20044;-76
2023/03/08 16:22:19;;;;;;;0.10;0.10;;;;;;;;;;6152121;23;20012;-75
2023/03/08 16:25:07;;;;;;;0.10;0.10;;;;;;;;;;6196948;23;20295;-76
2023/03/08 16:27:53;;;;;;;0.20;0.20;;;;;;;;;;6175941;23;20274;-74
2023/03/08 16:30:41;;;;;;;0.10;0.10;;;;;;;;;;6172802;23;20088;-75
2023/03/08 16:33:27;;;;;;;0.20;0.20;;;;;;;;;;6173590;23;20092;-75
2023/03/08 16:36:13;;;;;;;0.20;0.20;;;;;;;;;;6195876;23;20019;-75
2023/03/08 16:38:58;;;;;;;0.20;0.20;;;;;;;;;;6196548;23;20024;-75
2023/03/08 16:41:44;;;;;;;0.17;0.17;;;;;;;;;;6197114;23;20020;-75
2023/03/08 16:44:30;;;;;;;0.20;0.20;;;;;;;;;;6196093;23;20084;-75
2023/03/08 16:47:15;;;;;;;0.10;0.10;;;;;;;;;;6194382;23;20362;-75
2023/03/08 16:50:01;;;;;;;0.10;0.10;;;;;;;;;;6194934;23;20020;-75
2023/03/08 16:52:47;;;;;;;0.10;0.10;;;;;;;;;;6188600;23;20023;-75
2023/03/08 16:55:34;;;;;;;0.20;0.20;;;;;;;;;;6196770;23;20462;-75